^^
Datos históricos de la estación: Murcia-Puente Tocinos
Diario Informe para Mayo 06, 2021 Unidades:  Métrico    Ingés   Ambas
Diario Semanal Mensual Anual
  Máxima: Mínima: Promedio:
Temperatura: 27.3 °C 13.4 °C 20.1 °C
Punto de rocio: 15 °C 11.3 °C 13.4 °C
Humedad: 93% 40.2% 69%
Velocidad viento: 20.1km/h 0km/h 7.5km/h
Racha viento: 34.3km/h - -
Viento- - SE
Presión: 1016.2 hPa 1012.7 hPa -
Precipitación: 0.0 mm    
 
 
Tabla de datos para Mayo 06, 2021
Hora Temperatura Punto de rocio Presión Viento Velocidad viento Racha viento Humedad Intensidad lluvia(por hora) Nubes
00:59 16.8 °C 13.5 °C 1015.6 hPa ENE 2.3 km/h 3.7 km/h 81% 0.0 mm
01:04 16.8 °C 13.5 °C 1015.6 hPa NE 2.3 km/h 5.6 km/h 81% 0.0 mm
01:09 16.7 °C 13.5 °C 1015.6 hPa NE 2.8 km/h 7.4 km/h 81% 0.0 mm
01:14 16.7 °C 13.5 °C 1015.6 hPa NNO 3.2 km/h 8 km/h 81.5% 0.0 mm
01:19 16.7 °C 13.5 °C 1015.6 hPa NNE 3.1 km/h 7.4 km/h 81.1% 0.0 mm
01:24 16.6 °C 13.5 °C 1015.6 hPa NE 2.9 km/h 8 km/h 82% 0.0 mm
01:29 16.6 °C 13.5 °C 1015.6 hPa NNE 3.1 km/h 7.4 km/h 82.3% 0.0 mm
01:34 16.5 °C 13.6 °C 1015.6 hPa North 3.2 km/h 8 km/h 83% 0.0 mm
01:39 16.4 °C 13.5 °C 1015.6 hPa NNE 3.6 km/h 7.4 km/h 83% 0.0 mm
01:44 16.4 °C 13.5 °C 1015.6 hPa NNE 3.9 km/h 8 km/h 83% 0.0 mm
01:49 16.3 °C 13.6 °C 1015.5 hPa NE 3.9 km/h 8.4 km/h 83.7% 0.0 mm
01:54 16.3 °C 13.6 °C 1015.5 hPa NE 3.9 km/h 8 km/h 84% 0.0 mm
01:59 16.3 °C 13.6 °C 1015.5 hPa NNE 4.4 km/h 8.4 km/h 84% 0.0 mm
02:04 16.2 °C 13.5 °C 1015.5 hPa NE 4.6 km/h 8 km/h 84% 0.0 mm
02:09 16.2 °C 13.5 °C 1015.5 hPa NE 4.8 km/h 9.5 km/h 84% 0.0 mm
02:14 16.2 °C 13.5 °C 1015.6 hPa NNE 5 km/h 9.7 km/h 84% 0.0 mm
02:19 16.1 °C 13.5 °C 1015.6 hPa NNE 4.8 km/h 8 km/h 84.2% 0.0 mm
02:24 16.1 °C 13.5 °C 1015.6 hPa NNE 4.6 km/h 10 km/h 85% 0.0 mm
02:29 15.9 °C 13.4 °C 1015.6 hPa NE 4.8 km/h 9.7 km/h 85% 0.0 mm
02:34 15.9 °C 13.4 °C 1015.5 hPa NNE 5 km/h 9.7 km/h 85% 0.0 mm
02:39 15.8 °C 13.3 °C 1015.5 hPa NNE 5.8 km/h 10.3 km/h 85% 0.0 mm
02:44 15.7 °C 13.3 °C 1015.5 hPa NNE 6.5 km/h 11.3 km/h 85.6% 0.0 mm
02:49 15.7 °C 13.3 °C 1015.4 hPa North 6.5 km/h 11.3 km/h 86% 0.0 mm
02:54 15.5 °C 13.2 °C 1015.4 hPa North 6.5 km/h 8.4 km/h 86% 0.0 mm
02:59 15.4 °C 13.2 °C 1015.4 hPa North 6.1 km/h 8 km/h 86.6% 0.0 mm
03:04 15.4 °C 13.2 °C 1015.3 hPa North 5.8 km/h 8 km/h 87% 0.0 mm
03:09 15.3 °C 13.2 °C 1015.3 hPa North 4.2 km/h 3.2 km/h 87% 0.0 mm
03:14 15.4 °C 13.4 °C 1015.3 hPa NNO 2.9 km/h 4.7 km/h 87.9% 0.0 mm
03:19 15.4 °C 13.4 °C 1015.3 hPa NNO 1.2 km/h 4.8 km/h 88% 0.0 mm
03:24 15.4 °C 13.4 °C 1015.3 hPa Calm   3.2 km/h 88% 0.0 mm
03:29 15.4 °C 13.4 °C 1015.3 hPa Calm   4.7 km/h 88% 0.0 mm
03:34 15.4 °C 13.4 °C 1015.3 hPa Calm   4.8 km/h 88% 0.0 mm
03:39 15.4 °C 13.4 °C 1015.3 hPa NNO 1.3 km/h 4.8 km/h 88% 0.0 mm
03:44 15.4 °C 13.6 °C 1015.3 hPa NNO 2.3 km/h 4.7 km/h 88.9% 0.0 mm
03:49 15.5 °C 13.7 °C 1015.3 hPa NNO 2.2 km/h 5.6 km/h 89% 0.0 mm
03:54 15.4 °C 13.6 °C 1015.3 hPa North 2.2 km/h 5.8 km/h 89% 0.0 mm
03:59 15.4 °C 13.6 °C 1015.3 hPa NNE 2.9 km/h 7.4 km/h 89% 0.0 mm
04:04 15.3 °C 13.5 °C 1015.1 hPa North 3.2 km/h 8 km/h 89% 0.0 mm
04:09 15.3 °C 13.4 °C 1015.1 hPa NE 4.1 km/h 9.5 km/h 89% 0.0 mm
04:14 15.2 °C 13.4 °C 1015.1 hPa NNE 4.7 km/h 9.7 km/h 89.1% 0.0 mm
04:19 15.1 °C 13.4 °C 1015.1 hPa NE 5.7 km/h 10 km/h 90% 0.0 mm
04:24 14.9 °C 13.3 °C 1015.1 hPa NNE 6.5 km/h 9.7 km/h 90% 0.0 mm
04:29 14.8 °C 13.2 °C 1015.1 hPa NE 6.5 km/h 11.1 km/h 90% 0.0 mm
04:34 14.7 °C 13.1 °C 1015.0 hPa NNE 6.5 km/h 11.3 km/h 90% 0.0 mm
04:39 14.6 °C 13.1 °C 1015.0 hPa NE 6.5 km/h 9.7 km/h 90.5% 0.0 mm
04:44 14.6 °C 13.2 °C 1015.0 hPa NE 6.5 km/h 8.4 km/h 91% 0.0 mm
04:49 14.6 °C 13.2 °C 1015.0 hPa NNE 5.4 km/h 9.5 km/h 91% 0.0 mm
04:54 14.6 °C 13.2 °C 1015.0 hPa NE 4.7 km/h 9.7 km/h 91% 0.0 mm
04:59 14.6 °C 13.1 °C 1015.0 hPa NNE 4.9 km/h 9.7 km/h 91% 0.0 mm
05:04 14.4 °C 13 °C 1015.0 hPa NE 5 km/h 9.7 km/h 91% 0.0 mm
05:09 14.3 °C 12.8 °C 1015.0 hPa North 5 km/h 7.4 km/h 90.3% 0.0 mm
05:14 14.2 °C 12.6 °C 1015.1 hPa NO 5 km/h 8 km/h 90% 0.0 mm
05:19 14.1 °C 12.5 °C 1015.1 hPa NO 4.4 km/h 8.4 km/h 90% 0.0 mm
05:24 14.1 °C 12.6 °C 1015.1 hPa NO 3.9 km/h 8 km/h 90.9% 0.0 mm
05:29 14.1 °C 12.6 °C 1015.1 hPa NNO 4.3 km/h 8 km/h 91% 0.0 mm
05:34 14 °C 12.4 °C 1015.1 hPa North 4.7 km/h 8 km/h 90.3% 0.0 mm
05:39 13.8 °C 12.2 °C 1015.1 hPa NE 3.7 km/h 6.4 km/h 90% 0.0 mm
05:44 13.7 °C 12 °C 1015.3 hPa NNE 2.9 km/h 5.8 km/h 89.5% 0.0 mm
05:49 13.6 °C 11.8 °C 1015.3 hPa NNE 2.9 km/h 8.7 km/h 89% 0.0 mm
05:54 13.4 °C 11.6 °C 1015.3 hPa North 2.9 km/h 9.7 km/h 89% 0.0 mm
05:59 13.4 °C 11.6 °C 1015.4 hPa NNO 3.5 km/h 4.7 km/h 89% 0.0 mm
06:04 13.4 °C 11.6 °C 1015.4 hPa NNO 3.9 km/h 4.8 km/h 89% 0.0 mm
06:09 13.4 °C 11.6 °C 1015.4 hPa NNO 2.9 km/h 4.8 km/h 89% 0.0 mm
06:14 13.4 °C 11.7 °C 1015.5 hPa North 2.2 km/h 5.8 km/h 89.3% 0.0 mm
06:19 13.6 °C 12 °C 1015.5 hPa NNE 2.8 km/h 6.4 km/h 90% 0.0 mm
06:24 13.8 °C 12.3 °C 1015.5 hPa NE 3.2 km/h 6.4 km/h 90.8% 0.0 mm
06:29 13.9 °C 12.5 °C 1015.7 hPa Este 3 km/h 7.4 km/h 91% 0.0 mm
06:34 14.1 °C 12.6 °C 1015.7 hPa NNE 2.9 km/h 8 km/h 91% 0.0 mm
06:39 14.1 °C 12.7 °C 1015.7 hPa North 2.9 km/h 8 km/h 91% 0.0 mm
06:44 14.1 °C 12.7 °C 1015.7 hPa NO 2.9 km/h 5.6 km/h 91% 0.0 mm
06:49 14.1 °C 12.8 °C 1015.7 hPa NO 1.2 km/h 4.8 km/h 91.8% 0.0 mm
06:54 14.1 °C 12.9 °C 1015.7 hPa Calm   5.6 km/h 92% 0.0 mm
06:59 14.2 °C 12.9 °C 1015.7 hPa ONO 1.4 km/h 5.6 km/h 92% 0.0 mm
07:04 14.2 °C 12.9 °C 1015.7 hPa Oeste 2.2 km/h 5.8 km/h 92% 0.0 mm
07:09 14.2 °C 12.9 °C 1015.7 hPa NO 2.2 km/h 6.4 km/h 92% 0.0 mm
07:14 14.2 °C 12.9 °C 1015.7 hPa NNO 2.2 km/h 7.4 km/h 92% 0.0 mm
07:19 14.2 °C 12.9 °C 1015.7 hPa NO 3.2 km/h 8 km/h 92% 0.0 mm
07:24 14.2 °C 13.1 °C 1015.7 hPa NO 3.9 km/h 8 km/h 92.9% 0.0 mm
07:29 14.2 °C 13.1 °C 1015.9 hPa NO 3.3 km/h 9.3 km/h 93% 0.0 mm
07:34 14.3 °C 13.2 °C 1015.9 hPa ONO 2.9 km/h 11.9 km/h 93% 0.0 mm
07:39 14.3 °C 13.2 °C 1015.9 hPa NNO 4 km/h 13 km/h 93% 0.0 mm
07:44 14.3 °C 13.2 °C 1015.9 hPa NNO 5 km/h 12.9 km/h 93% 0.0 mm
07:49 14.3 °C 13.2 °C 1015.9 hPa ONO 4 km/h 8 km/h 93% 0.0 mm
07:54 14.3 °C 13.2 °C 1015.9 hPa ONO 3.2 km/h 10 km/h 93% 0.0 mm
07:59 14.3 °C 13.2 °C 1016.0 hPa ONO 4.1 km/h 9.7 km/h 93% 0.0 mm
08:04 14.4 °C 13.3 °C 1016.0 hPa NO 4.6 km/h 9.7 km/h 93% 0.0 mm
08:09 14.4 °C 13.3 °C 1016.0 hPa OSO 4.2 km/h 8 km/h 93% 0.0 mm
08:14 14.5 °C 13.4 °C 1016.0 hPa SSO 3.9 km/h 8.4 km/h 93% 0.0 mm
08:19 14.4 °C 13.3 °C 1016.0 hPa ESE 3.5 km/h 8 km/h 93% 0.0 mm
08:24 14.4 °C 13.3 °C 1016.0 hPa Este 3.2 km/h 8 km/h 93% 0.0 mm
08:29 14.6 °C 13.5 °C 1016.0 hPa ESE 3.6 km/h 8 km/h 93% 0.0 mm
08:34 14.6 °C 13.5 °C 1016.0 hPa ESE 3.9 km/h 10.3 km/h 93% 0.0 mm
08:39 14.7 °C 13.5 °C 1016.0 hPa ESE 5 km/h 11.3 km/h 93% 0.0 mm
08:44 14.7 °C 13.5 °C 1016.0 hPa Sur 5.8 km/h 8.7 km/h 92.6% 0.0 mm
08:49 14.7 °C 13.5 °C 1016.0 hPa SSO 5.1 km/h 9.7 km/h 92.7% 0.0 mm
08:54 14.8 °C 13.6 °C 1016.0 hPa SO 4.7 km/h 9.3 km/h 92.6% 0.0 mm
08:59 15 °C 13.7 °C 1016.1 hPa SO 4.6 km/h 10 km/h 92.2% 0.0 mm
09:04 15.1 °C 13.7 °C 1016.1 hPa OSO 4.6 km/h 11.1 km/h 91.3% 0.0 mm
09:09 15.2 °C 13.6 °C 1016.1 hPa OSO 6 km/h 11.9 km/h 90.3% 0.0 mm
09:14 15.3 °C 13.6 °C 1016.1 hPa SO 6.9 km/h 13 km/h 89.4% 0.0 mm
09:19 15.5 °C 13.5 °C 1016.1 hPa SO 6.9 km/h 14.8 km/h 88.2% 0.0 mm
09:24 15.7 °C 13.5 °C 1016.1 hPa SO 6.9 km/h 14.5 km/h 86.9% 0.0 mm
09:29 15.8 °C 13.5 °C 1016.2 hPa SO 7.3 km/h 11.3 km/h 86% 0.0 mm
09:34 16 °C 13.5 °C 1016.2 hPa SSO 7.6 km/h 14 km/h 85% 0.0 mm
09:39 16.2 °C 13.5 °C 1016.2 hPa SSO 7.6 km/h 14.8 km/h 84% 0.0 mm
09:44 16.4 °C 13.5 °C 1016.2 hPa SSO 7.6 km/h 12.9 km/h 83.2% 0.0 mm
09:49 16.7 °C 13.7 °C 1016.1 hPa SO 7.2 km/h 11.3 km/h 82.7% 0.0 mm
09:54 16.9 °C 13.8 °C 1016.1 hPa SO 6.9 km/h 13 km/h 81.8% 0.0 mm
09:59 17.1 °C 13.7 °C 1016.1 hPa OSO 6.9 km/h 15.6 km/h 80.3% 0.0 mm
10:04 17.2 °C 13.5 °C 1016.0 hPa SO 6.9 km/h 16.1 km/h 79% 0.0 mm
10:09 17.3 °C 13.6 °C 1016.0 hPa SSO 7.8 km/h 14.5 km/h 79% 0.0 mm
10:14 17.6 °C 13.6 °C 1016.0 hPa SO 8.4 km/h 13 km/h 77.4% 0.0 mm
10:19 17.7 °C 13.6 °C 1016.0 hPa OSO 7.9 km/h 14.8 km/h 76.8% 0.0 mm
10:24 17.9 °C 13.6 °C 1016.0 hPa SO 7.6 km/h 14.5 km/h 75.7% 0.0 mm
10:29 18.2 °C 13.6 °C 1016.0 hPa SO 7.2 km/h 12.9 km/h 74.6% 0.0 mm
10:34 18.4 °C 13.7 °C 1015.8 hPa Sur 6.9 km/h 11.3 km/h 74% 0.0 mm
10:39 18.7 °C 13.7 °C 1015.8 hPa Sur 6.3 km/h 11.1 km/h 72.9% 0.0 mm
10:44 18.9 °C 13.7 °C 1015.9 hPa SSE 5.8 km/h 11.3 km/h 72% 0.0 mm
10:49 19.2 °C 13.7 °C 1015.9 hPa SE 5.3 km/h 11.9 km/h 70.9% 0.0 mm
10:54 19.3 °C 13.6 °C 1015.9 hPa ESE 5 km/h 11.3 km/h 69.9% 0.0 mm
10:59 19.6 °C 13.9 °C 1016.0 hPa ESE 5.4 km/h 11.3 km/h 69.7% 0.0 mm
11:04 19.8 °C 13.7 °C 1016.0 hPa Oeste 5.8 km/h 9.7 km/h 68.3% 0.0 mm
11:09 19.8 °C 13.8 °C 1016.0 hPa ONO 5.2 km/h 6.4 km/h 67.9% 0.0 mm
11:14 20.1 °C 13.5 °C 1016.0 hPa Oeste 4.7 km/h 8 km/h 65.9% 0.0 mm
11:19 20.3 °C 13.4 °C 1016.0 hPa SO 3.8 km/h 8 km/h 64.3% 0.0 mm
11:24 20.9 °C 13.1 °C 1016.0 hPa SE 3.2 km/h 7.4 km/h 61% 0.0 mm
11:29 21.3 °C 13.2 °C 1016.0 hPa North 3.2 km/h 8 km/h 60% 0.0 mm
11:34 21.4 °C 13.3 °C 1015.9 hPa NO 3.2 km/h 8 km/h 59.9% 0.0 mm
11:39 21.5 °C 13.4 °C 1015.9 hPa NO 3.6 km/h 9.5 km/h 60% 0.0 mm
11:44 21.7 °C 13.6 °C 1015.9 hPa NE 3.9 km/h 11.1 km/h 60% 0.0 mm
11:49 22 °C 13.9 °C 1015.8 hPa Este 4.3 km/h 11.3 km/h 60% 0.0 mm
11:54 22.3 °C 13.9 °C 1015.8 hPa NNE 4.7 km/h 11.1 km/h 59.1% 0.0 mm
11:59 22.4 °C 14 °C 1015.8 hPa North 5.2 km/h 13 km/h 58.9% 0.0 mm
12:04 22.4 °C 14 °C 1015.8 hPa NNO 5.8 km/h 12.9 km/h 59% 0.0 mm
12:09 22.5 °C 13.9 °C 1015.8 hPa North 6.4 km/h 11.9 km/h 58.5% 0.0 mm
12:14 22.6 °C 14 °C 1015.8 hPa North 6.9 km/h 11.9 km/h 58.2% 0.0 mm
12:19 22.9 °C 14.2 °C 1015.8 hPa North 6.9 km/h 13 km/h 58% 0.0 mm
12:24 23.1 °C 14.1 °C 1015.8 hPa North 6.9 km/h 12.9 km/h 57.1% 0.0 mm
12:29 23.2 °C 14.2 °C 1015.8 hPa NNE 6.7 km/h 13.7 km/h 56.9% 0.0 mm
12:34 23.4 °C 14.2 °C 1015.7 hPa NNE 6.5 km/h 14.5 km/h 56.6% 0.0 mm
12:39 23.6 °C 14.2 °C 1015.7 hPa ENE 6.5 km/h 14.5 km/h 55.7% 0.0 mm
12:44 23.8 °C 14.1 °C 1015.7 hPa Este 6.5 km/h 11.3 km/h 54.5% 0.0 mm
12:49 24.2 °C 13.6 °C 1015.5 hPa Este 5.5 km/h 13 km/h 51.7% 0.0 mm
12:54 24.4 °C 13.3 °C 1015.5 hPa ESE 4.7 km/h 12.9 km/h 50% 0.0 mm
12:59 24.6 °C 13.5 °C 1015.5 hPa ENE 5.3 km/h 11.1 km/h 49.9% 0.0 mm
13:00 24.8 °C 13.6 °C 1015.3 hPa Este 4.8 km/h 11.3 km/h 50% 0.0 mm
13:09 24.8 °C 13 °C 1015.3 hPa ESE 6.1 km/h 13.7 km/h 48.1% 0.0 mm
13:14 24.6 °C 13.1 °C 1015.3 hPa ESE 6.5 km/h 14.5 km/h 48.8% 0.0 mm
13:19 24.7 °C 13.4 °C 1015.1 hPa NNE 5.5 km/h 12.2 km/h 49.2% 0.0 mm
13:24 24.9 °C 13.5 °C 1015.1 hPa NE 4.7 km/h 13 km/h 49.1% 0.0 mm
13:29 24.9 °C 13.5 °C 1015.1 hPa North 5.9 km/h 14.8 km/h 49.1% 0.0 mm
13:34 25.1 °C 13.5 °C 1014.8 hPa Este 6.9 km/h 14.8 km/h 48.6% 0.0 mm
13:39 25.3 °C 13.6 °C 1014.8 hPa Este 7.7 km/h 16.7 km/h 48.4% 0.0 mm
13:44 25.4 °C 13.5 °C 1014.8 hPa NE 8.4 km/h 16.1 km/h 47.8% 0.0 mm
13:49 25.5 °C 13.6 °C 1014.8 hPa NNE 7.3 km/h 14.8 km/h 47.9% 0.0 mm
13:54 25.7 °C 13.6 °C 1014.8 hPa SE 6.5 km/h 14.8 km/h 47.3% 0.0 mm
13:55 25.7 °C 13.6 °C 1014.8 hPa ENE 8 km/h 14.5 km/h 47% 0.0 mm
14:04 25.7 °C 13.5 °C 1014.5 hPa ESE 7.6 km/h 15.6 km/h 46.8% 0.0 mm
14:09 25.8 °C 13.6 °C 1014.5 hPa NNE 7.6 km/h 11.1 km/h 47% 0.0 mm
14:14 25.8 °C 13.8 °C 1014.5 hPa NNE 7.6 km/h 18 km/h 47.3% 0.0 mm
14:19 26.1 °C 14.2 °C 1014.4 hPa Este 8.2 km/h 22.2 km/h 47.8% 0.0 mm
14:24 26.2 °C 14.1 °C 1014.4 hPa Este 8.7 km/h 22.5 km/h 47.5% 0.0 mm
14:29 26.1 °C 14.2 °C 1014.4 hPa ENE 10.6 km/h 20.9 km/h 47.9% 0.0 mm
14:34 26.2 °C 14.4 °C 1014.2 hPa NNE 11.9 km/h 16.7 km/h 48.1% 0.0 mm
14:39 26.3 °C 14.4 °C 1014.2 hPa Este 9.2 km/h 20.9 km/h 48% 0.0 mm
14:44 26.4 °C 14.5 °C 1014.2 hPa Este 7.6 km/h 24.1 km/h 47.9% 0.0 mm
14:49 26.5 °C 14.6 °C 1014.0 hPa Este 10.2 km/h 24.5 km/h 48% 0.0 mm
14:54 26.5 °C 14.6 °C 1014.0 hPa ENE 11.9 km/h 24.1 km/h 48% 0.0 mm
14:55 26.5 °C 14.6 °C 1014.0 hPa ENE 11.3 km/h 22.5 km/h 48% 0.0 mm
15:04 26.4 °C 14.5 °C 1014.0 hPa Este 13 km/h 24.1 km/h 48% 0.0 mm
15:09 26.5 °C 14.4 °C 1014.0 hPa Este 14.1 km/h 24.1 km/h 47.4% 0.0 mm
15:14 26.6 °C 14.5 °C 1014.0 hPa Este 14.8 km/h 22.5 km/h 47.6% 0.0 mm
15:19 26.7 °C 14.8 °C 1013.7 hPa Este 13.4 km/h 27.8 km/h 47.9% 0.0 mm
15:24 26.8 °C 14.8 °C 1013.7 hPa ESE 12.2 km/h 27.8 km/h 47.7% 0.0 mm
15:29 26.8 °C 14.7 °C 1013.7 hPa ESE 14.3 km/h 27.8 km/h 47.5% 0.0 mm
15:34 26.9 °C 14.9 °C 1013.6 hPa ESE 16.1 km/h 27.4 km/h 47.9% 0.0 mm
15:39 27 °C 14.9 °C 1013.6 hPa ESE 14.6 km/h 27.8 km/h 47.6% 0.0 mm
15:44 27 °C 14.9 °C 1013.6 hPa Este 13.7 km/h 27.4 km/h 47.4% 0.0 mm
15:49 27 °C 15 °C 1013.5 hPa Este 15.2 km/h 30.6 km/h 47.8% 0.0 mm
15:54 27 °C 14.9 °C 1013.5 hPa ESE 16.4 km/h 30.6 km/h 47.5% 0.0 mm
15:55 27.1 °C 14.8 °C 1013.5 hPa Este 16.4 km/h 25.7 km/h 47% 0.0 mm
16:00 27.2 °C 14.9 °C 1013.2 hPa ESE 16.1 km/h 25.7 km/h 47% 0.0 mm
16:09 26.9 °C 15 °C 1013.2 hPa Este 18.2 km/h 29.8 km/h 48% 0.0 mm
16:14 27 °C 15 °C 1013.2 hPa Este 19 km/h 30.6 km/h 47.8% 0.0 mm
16:19 26.9 °C 14.6 °C 1013.1 hPa Este 19.7 km/h 30.6 km/h 46.9% 0.0 mm
16:24 26.9 °C 14.9 °C 1013.1 hPa Este 20.1 km/h 30.6 km/h 47.6% 0.0 mm
16:29 27.2 °C 14.8 °C 1013.1 hPa ESE 18.5 km/h 26.2 km/h 46.8% 0.0 mm
16:34 27.2 °C 14.5 °C 1012.9 hPa ESE 17.2 km/h 29.6 km/h 45.8% 0.0 mm
16:39 27.3 °C 14.5 °C 1012.9 hPa ESE 17.8 km/h 30.6 km/h 45.6% 0.0 mm
16:44 27.2 °C 14.4 °C 1012.9 hPa ESE 18.4 km/h 33.3 km/h 45.7% 0.0 mm
16:49 27.1 °C 14.5 °C 1012.9 hPa ESE 19.2 km/h 33.8 km/h 46% 0.0 mm
16:54 26.9 °C 14.3 °C 1012.9 hPa ESE 19.8 km/h 34.3 km/h 46% 0.0 mm
16:55 26.9 °C 14.3 °C 1012.9 hPa ESE 20 km/h 33.8 km/h 46% 0.0 mm
17:09 26.8 °C 14.1 °C 1012.8 hPa ESE 17.7 km/h 27.8 km/h 45.5% 0.0 mm
17:14 26.8 °C 14.1 °C 1012.8 hPa ESE 17.2 km/h 29.6 km/h 45.6% 0.0 mm
17:19 26.7 °C 13.9 °C 1012.8 hPa ESE 17.2 km/h 29 km/h 45.3% 0.0 mm
17:24 26.7 °C 13.8 °C 1012.8 hPa ESE 17.2 km/h 27.8 km/h 45% 0.0 mm
17:29 26.8 °C 13.8 °C 1012.8 hPa ESE 16.5 km/h 28.2 km/h 44.8% 0.0 mm
17:34 26.7 °C 13.5 °C 1012.7 hPa ESE 16.1 km/h 27.4 km/h 44.3% 0.0 mm
17:39 26.6 °C 13.6 °C 1012.7 hPa ESE 16.3 km/h 25.9 km/h 44.8% 0.0 mm
17:44 26.6 °C 13.5 °C 1012.7 hPa ESE 16.4 km/h 25.7 km/h 44.6% 0.0 mm
17:49 26.7 °C 13.4 °C 1012.7 hPa ESE 15.4 km/h 24.5 km/h 44.1% 0.0 mm
17:54 26.8 °C 13.4 °C 1012.7 hPa ESE 14.8 km/h 24.1 km/h 43.8% 0.0 mm
17:59 26.6 °C 13.3 °C 1012.8 hPa ESE 14.1 km/h 24.1 km/h 44% 0.0 mm
18:04 26.6 °C 13.2 °C 1012.8 hPa ESE 13.7 km/h 24.1 km/h 43.6% 0.0 mm
18:09 26.7 °C 13.2 °C 1012.8 hPa SE 13.9 km/h 22.5 km/h 43.5% 0.0 mm
18:14 26.6 °C 13.3 °C 1012.8 hPa SE 14 km/h 26.2 km/h 43.9% 0.0 mm
18:19 26.6 °C 13.2 °C 1012.8 hPa SE 14.5 km/h 25.7 km/h 43.6% 0.0 mm
18:24 26.5 °C 13.2 °C 1012.8 hPa ESE 14.8 km/h 24.1 km/h 43.9% 0.0 mm
18:29 26.7 °C 13.5 °C 1012.8 hPa ESE 12.3 km/h 20.9 km/h 44.2% 0.0 mm
18:34 26.7 °C 13.4 °C 1012.7 hPa ESE 10.3 km/h 16.7 km/h 44% 0.0 mm
18:39 26.7 °C 13.2 °C 1012.7 hPa ESE 10.8 km/h 20.9 km/h 43.6% 0.0 mm
18:44 26.6 °C 13.4 °C 1012.9 hPa SE 11.1 km/h 20.9 km/h 44.1% 0.0 mm
18:49 26.4 °C 13.4 °C 1012.9 hPa ESE 11.5 km/h 22.2 km/h 44.7% 0.0 mm
18:54 26.3 °C 13.2 °C 1012.9 hPa SE 11.9 km/h 22.5 km/h 44.3% 0.0 mm
18:55 26.3 °C 12.8 °C 1012.9 hPa SSE 11.8 km/h 20.9 km/h 43.1% 0.0 mm
19:04 26.3 °C 12.6 °C 1012.9 hPa SE 10 km/h 19.3 km/h 42.7% 0.0 mm
19:09 26.3 °C 12.1 °C 1012.9 hPa Sur 10 km/h 18.5 km/h 41.1% 0.0 mm
19:14 26.3 °C 12 °C 1012.9 hPa Sur 10 km/h 19.3 km/h 41.1% 0.0 mm
19:19 26.2 °C 12.3 °C 1012.9 hPa Sur 10 km/h 22.2 km/h 42% 0.0 mm
19:24 26.1 °C 11.9 °C 1012.9 hPa Sur 10 km/h 22.5 km/h 41.2% 0.0 mm
19:29 25.9 °C 11.4 °C 1013.0 hPa Sur 11.3 km/h 22.5 km/h 40.2% 0.0 mm
19:34 25.8 °C 11.4 °C 1013.0 hPa SSE 12.2 km/h 20.9 km/h 40.9% 0.0 mm
19:39 25.7 °C 11.3 °C 1013.0 hPa SSE 11.1 km/h 20.1 km/h 40.7% 0.0 mm
19:44 25.7 °C 11.4 °C 1013.0 hPa SE 10.3 km/h 24.1 km/h 41% 0.0 mm
19:49 25.7 °C 11.4 °C 1013.0 hPa SSE 11.9 km/h 24.1 km/h 41% 0.0 mm
19:54 25.7 °C 11.4 °C 1013.0 hPa Sur 13 km/h 19.3 km/h 41% 0.0 mm
19:59 25.7 °C 11.4 °C 1013.2 hPa SSE 11.2 km/h 18.5 km/h 41% 0.0 mm
20:04 25.5 °C 11.6 °C 1013.2 hPa SSE 10 km/h 19.3 km/h 41.9% 0.0 mm
20:05 25.4 °C 11.6 °C 1013.2 hPa Sur 9.9 km/h 19.3 km/h 42% 0.0 mm
23:19 18.5 °C 15 °C 1015.5 hPa NNE 10.4 km/h 19.3 km/h 80% 0.0 mm
Murcia-Puente Tocinos, España
Compliments of Weather Underground - 2.5 mb

La estación de MeteoMurcia.com, publica sus datos en los siguientes proyectos:

Weather Underground PWS IMURCIAP2 Meteoclimatic www.awekas.at

W3Counter
Web Analytics